Terminal Aerodrome Forecast
Issued by NWS

Home | Current Version | Previous Version | Text Only | Print | Product List | Glossary On
Versions: 1 2 3 4 5 6 7 8 9 10 11 12 13 14 15 16
000
FTUS45 KABQ 010534
TAFFMN
TAF
KFMN 010534Z 0106/0206 VRB04KT P6SM FEW250
     FM011800 28010KT P6SM SKC
     FM012000 29012G20KT P6SM FEW080
     FM020200 VRB05KT P6SM SKC=

USA.gov is the U.S. government's official web portal to all federal, state and local government web resources and services.